sensor_id;sensor_type;location;lat;lon;timestamp;P1;durP1;ratioP1;P2;durP2;ratioP2
75698;SDS011;64313;51.018;13.742;2024-03-25T00:00:42;4.63;;;1.00;;
75698;SDS011;64313;51.018;13.742;2024-03-25T00:05:32;2.93;;;1.10;;
75698;SDS011;64313;51.018;13.742;2024-03-25T00:07:58;2.45;;;1.10;;
75698;SDS011;64313;51.018;13.742;2024-03-25T00:12:49;3.45;;;1.15;;
75698;SDS011;64313;51.018;13.742;2024-03-25T00:15:21;3.80;;;1.42;;
75698;SDS011;64313;51.018;13.742;2024-03-25T00:17:48;4.22;;;1.23;;
75698;SDS011;64313;51.018;13.742;2024-03-25T00:20:14;4.68;;;1.20;;
75698;SDS011;64313;51.018;13.742;2024-03-25T00:25:05;3.65;;;1.38;;
75698;SDS011;64313;51.018;13.742;2024-03-25T00:29:56;3.60;;;1.10;;
75698;SDS011;64313;51.018;13.742;2024-03-25T00:32:22;3.83;;;1.10;;
75698;SDS011;64313;51.018;13.742;2024-03-25T00:34:47;3.35;;;1.20;;
75698;SDS011;64313;51.018;13.742;2024-03-25T00:39:39;2.53;;;0.95;;
75698;SDS011;64313;51.018;13.742;2024-03-25T00:44:30;3.53;;;1.20;;
75698;SDS011;64313;51.018;13.742;2024-03-25T00:49:21;3.73;;;1.10;;
75698;SDS011;64313;51.018;13.742;2024-03-25T00:51:49;3.08;;;1.08;;
75698;SDS011;64313;51.018;13.742;2024-03-25T00:56:39;2.80;;;1.13;;
75698;SDS011;64313;51.018;13.742;2024-03-25T01:01:31;3.13;;;1.13;;
75698;SDS011;64313;51.018;13.742;2024-03-25T01:03:57;4.20;;;1.35;;
75698;SDS011;64313;51.018;13.742;2024-03-25T01:08:49;2.60;;;1.00;;
75698;SDS011;64313;51.018;13.742;2024-03-25T01:11:15;3.60;;;1.15;;
75698;SDS011;64313;51.018;13.742;2024-03-25T01:16:06;3.28;;;1.02;;
75698;SDS011;64313;51.018;13.742;2024-03-25T01:18:32;3.65;;;1.20;;
75698;SDS011;64313;51.018;13.742;2024-03-25T01:23:23;3.13;;;1.13;;
75698;SDS011;64313;51.018;13.742;2024-03-25T01:25:48;4.32;;;1.50;;
75698;SDS011;64313;51.018;13.742;2024-03-25T01:28:13;4.80;;;1.17;;
75698;SDS011;64313;51.018;13.742;2024-03-25T01:30:39;3.95;;;0.80;;
75698;SDS011;64313;51.018;13.742;2024-03-25T01:35:30;2.72;;;0.90;;
75698;SDS011;64313;51.018;13.742;2024-03-25T01:37:56;2.60;;;0.90;;
75698;SDS011;64313;51.018;13.742;2024-03-25T01:42:59;2.30;;;0.70;;
75698;SDS011;64313;51.018;13.742;2024-03-25T01:45:27;2.55;;;0.80;;
75698;SDS011;64313;51.018;13.742;2024-03-25T01:47:55;1.50;;;0.60;;
75698;SDS011;64313;51.018;13.742;2024-03-25T01:50:21;2.15;;;0.60;;
75698;SDS011;64313;51.018;13.742;2024-03-25T01:55:15;2.42;;;0.68;;
75698;SDS011;64313;51.018;13.742;2024-03-25T01:57:45;1.65;;;0.70;;
75698;SDS011;64313;51.018;13.742;2024-03-25T02:00:12;0.90;;;0.40;;
75698;SDS011;64313;51.018;13.742;2024-03-25T02:02:44;1.95;;;0.70;;
75698;SDS011;64313;51.018;13.742;2024-03-25T02:05:11;1.88;;;0.63;;
75698;SDS011;64313;51.018;13.742;2024-03-25T02:07:39;1.65;;;0.60;;
75698;SDS011;64313;51.018;13.742;2024-03-25T02:10:06;2.05;;;0.70;;
75698;SDS011;64313;51.018;13.742;2024-03-25T02:12:34;1.83;;;0.77;;
75698;SDS011;64313;51.018;13.742;2024-03-25T02:15:00;1.65;;;0.65;;
75698;SDS011;64313;51.018;13.742;2024-03-25T02:19:51;2.63;;;0.90;;
75698;SDS011;64313;51.018;13.742;2024-03-25T02:22:17;2.00;;;0.75;;
75698;SDS011;64313;51.018;13.742;2024-03-25T02:27:10;2.90;;;1.00;;
75698;SDS011;64313;51.018;13.742;2024-03-25T02:29:39;2.90;;;1.20;;
75698;SDS011;64313;51.018;13.742;2024-03-25T02:32:05;3.33;;;1.33;;
75698;SDS011;64313;51.018;13.742;2024-03-25T02:34:31;3.20;;;1.38;;
75698;SDS011;64313;51.018;13.742;2024-03-25T02:39:22;4.10;;;1.40;;
75698;SDS011;64313;51.018;13.742;2024-03-25T02:41:49;3.95;;;1.40;;
75698;SDS011;64313;51.018;13.742;2024-03-25T02:46:40;4.35;;;1.35;;
75698;SDS011;64313;51.018;13.742;2024-03-25T02:51:31;3.50;;;1.40;;
75698;SDS011;64313;51.018;13.742;2024-03-25T02:56:22;3.30;;;1.30;;
75698;SDS011;64313;51.018;13.742;2024-03-25T03:01:12;3.93;;;1.47;;
75698;SDS011;64313;51.018;13.742;2024-03-25T03:06:03;4.57;;;1.43;;
75698;SDS011;64313;51.018;13.742;2024-03-25T03:10:53;4.90;;;1.37;;
75698;SDS011;64313;51.018;13.742;2024-03-25T03:15:44;3.87;;;1.37;;
75698;SDS011;64313;51.018;13.742;2024-03-25T03:20:35;3.80;;;1.42;;
75698;SDS011;64313;51.018;13.742;2024-03-25T03:25:25;5.20;;;1.97;;
75698;SDS011;64313;51.018;13.742;2024-03-25T03:27:51;5.18;;;1.67;;
75698;SDS011;64313;51.018;13.742;2024-03-25T03:30:17;5.35;;;1.75;;
75698;SDS011;64313;51.018;13.742;2024-03-25T03:32:42;4.72;;;1.80;;
75698;SDS011;64313;51.018;13.742;2024-03-25T03:37:33;5.37;;;1.57;;
75698;SDS011;64313;51.018;13.742;2024-03-25T03:42:23;4.90;;;1.30;;
75698;SDS011;64313;51.018;13.742;2024-03-25T03:44:49;6.25;;;1.80;;
75698;SDS011;64313;51.018;13.742;2024-03-25T03:49:39;6.53;;;1.90;;
75698;SDS011;64313;51.018;13.742;2024-03-25T03:54:31;4.32;;;1.52;;
75698;SDS011;64313;51.018;13.742;2024-03-25T03:59:21;6.53;;;1.70;;
75698;SDS011;64313;51.018;13.742;2024-03-25T04:01:47;4.45;;;1.65;;
75698;SDS011;64313;51.018;13.742;2024-03-25T04:06:37;5.17;;;1.40;;
75698;SDS011;64313;51.018;13.742;2024-03-25T04:09:05;4.15;;;1.67;;
75698;SDS011;64313;51.018;13.742;2024-03-25T04:11:31;5.65;;;1.50;;
75698;SDS011;64313;51.018;13.742;2024-03-25T04:16:22;4.83;;;1.60;;
75698;SDS011;64313;51.018;13.742;2024-03-25T04:21:13;4.40;;;1.40;;
75698;SDS011;64313;51.018;13.742;2024-03-25T04:26:05;6.40;;;1.60;;
75698;SDS011;64313;51.018;13.742;2024-03-25T04:28:32;4.93;;;1.85;;
75698;SDS011;64313;51.018;13.742;2024-03-25T04:33:23;6.03;;;1.80;;
75698;SDS011;64313;51.018;13.742;2024-03-25T04:38:15;6.90;;;1.73;;
75698;SDS011;64313;51.018;13.742;2024-03-25T04:40:41;3.70;;;1.40;;
75698;SDS011;64313;51.018;13.742;2024-03-25T04:45:32;4.90;;;1.60;;
75698;SDS011;64313;51.018;13.742;2024-03-25T04:50:22;4.77;;;1.93;;
75698;SDS011;64313;51.018;13.742;2024-03-25T04:55:13;3.60;;;1.70;;
75698;SDS011;64313;51.018;13.742;2024-03-25T05:00:04;5.17;;;1.50;;
75698;SDS011;64313;51.018;13.742;2024-03-25T05:04:55;4.73;;;1.67;;
75698;SDS011;64313;51.018;13.742;2024-03-25T05:09:45;6.17;;;1.67;;
75698;SDS011;64313;51.018;13.742;2024-03-25T05:14:36;4.77;;;1.53;;
75698;SDS011;64313;51.018;13.742;2024-03-25T05:19:28;5.32;;;1.85;;
75698;SDS011;64313;51.018;13.742;2024-03-25T05:24:19;5.10;;;1.70;;
75698;SDS011;64313;51.018;13.742;2024-03-25T05:26:44;4.93;;;1.55;;
75698;SDS011;64313;51.018;13.742;2024-03-25T05:31:35;4.70;;;1.65;;
75698;SDS011;64313;51.018;13.742;2024-03-25T05:36:27;4.03;;;1.50;;
75698;SDS011;64313;51.018;13.742;2024-03-25T05:41:18;4.47;;;1.70;;
75698;SDS011;64313;51.018;13.742;2024-03-25T05:46:09;5.40;;;1.95;;
75698;SDS011;64313;51.018;13.742;2024-03-25T05:51:00;6.20;;;1.70;;
75698;SDS011;64313;51.018;13.742;2024-03-25T05:53:35;4.07;;;1.60;;
75698;SDS011;64313;51.018;13.742;2024-03-25T05:58:26;2.95;;;0.77;;
75698;SDS011;64313;51.018;13.742;2024-03-25T06:00:52;4.70;;;1.10;;
75698;SDS011;64313;51.018;13.742;2024-03-25T06:03:20;2.80;;;0.90;;
75698;SDS011;64313;51.018;13.742;2024-03-25T06:05:46;3.70;;;1.00;;
75698;SDS011;64313;51.018;13.742;2024-03-25T06:10:49;3.00;;;1.23;;
75698;SDS011;64313;51.018;13.742;2024-03-25T06:13:16;3.10;;;1.30;;
75698;SDS011;64313;51.018;13.742;2024-03-25T06:18:06;6.00;;;1.70;;
75698;SDS011;64313;51.018;13.742;2024-03-25T06:22:57;5.10;;;1.80;;
75698;SDS011;64313;51.018;13.742;2024-03-25T06:27:47;5.13;;;1.70;;
75698;SDS011;64313;51.018;13.742;2024-03-25T06:30:13;4.07;;;1.65;;
75698;SDS011;64313;51.018;13.742;2024-03-25T06:32:57;4.70;;;2.20;;
75698;SDS011;64313;51.018;13.742;2024-03-25T06:35:42;5.50;;;1.67;;
75698;SDS011;64313;51.018;13.742;2024-03-25T06:38:08;4.82;;;2.00;;
75698;SDS011;64313;51.018;13.742;2024-03-25T06:42:58;4.70;;;1.60;;
75698;SDS011;64313;51.018;13.742;2024-03-25T06:47:49;4.00;;;1.20;;
75698;SDS011;64313;51.018;13.742;2024-03-25T06:50:15;5.47;;;1.58;;
75698;SDS011;64313;51.018;13.742;2024-03-25T06:55:05;5.15;;;1.30;;
75698;SDS011;64313;51.018;13.742;2024-03-25T06:59:56;3.35;;;1.00;;
75698;SDS011;64313;51.018;13.742;2024-03-25T07:02:24;4.18;;;1.23;;
75698;SDS011;64313;51.018;13.742;2024-03-25T07:04:49;4.97;;;1.50;;
75698;SDS011;64313;51.018;13.742;2024-03-25T07:09:40;3.30;;;1.20;;
75698;SDS011;64313;51.018;13.742;2024-03-25T07:14:31;5.22;;;1.48;;
75698;SDS011;64313;51.018;13.742;2024-03-25T07:16:56;5.30;;;1.40;;
75698;SDS011;64313;51.018;13.742;2024-03-25T07:21:47;5.70;;;1.70;;
75698;SDS011;64313;51.018;13.742;2024-03-25T07:26:37;7.00;;;1.87;;
75698;SDS011;64313;51.018;13.742;2024-03-25T07:31:28;4.70;;;1.43;;
75698;SDS011;64313;51.018;13.742;2024-03-25T07:36:18;6.13;;;1.60;;
75698;SDS011;64313;51.018;13.742;2024-03-25T07:41:09;5.10;;;1.67;;
75698;SDS011;64313;51.018;13.742;2024-03-25T07:46:00;3.90;;;1.30;;
75698;SDS011;64313;51.018;13.742;2024-03-25T07:50:52;4.05;;;1.30;;
75698;SDS011;64313;51.018;13.742;2024-03-25T07:53:17;4.55;;;1.50;;
75698;SDS011;64313;51.018;13.742;2024-03-25T07:58:08;4.43;;;1.48;;
75698;SDS011;64313;51.018;13.742;2024-03-25T08:03:00;3.13;;;1.17;;
75698;SDS011;64313;51.018;13.742;2024-03-25T08:07:51;3.63;;;1.52;;
75698;SDS011;64313;51.018;13.742;2024-03-25T08:10:17;6.03;;;1.13;;
75698;SDS011;64313;51.018;13.742;2024-03-25T08:15:08;3.40;;;1.40;;
75698;SDS011;64313;51.018;13.742;2024-03-25T08:17:36;6.65;;;1.40;;
75698;SDS011;64313;51.018;13.742;2024-03-25T08:20:02;5.72;;;1.50;;
75698;SDS011;64313;51.018;13.742;2024-03-25T08:24:53;3.43;;;1.40;;
75698;SDS011;64313;51.018;13.742;2024-03-25T08:27:18;5.25;;;1.30;;
75698;SDS011;64313;51.018;13.742;2024-03-25T08:32:09;4.60;;;1.97;;
75698;SDS011;64313;51.018;13.742;2024-03-25T08:36:59;5.90;;;1.73;;
75698;SDS011;64313;51.018;13.742;2024-03-25T08:41:50;4.90;;;1.63;;
75698;SDS011;64313;51.018;13.742;2024-03-25T08:44:15;5.93;;;1.77;;
75698;SDS011;64313;51.018;13.742;2024-03-25T08:46:42;5.15;;;1.60;;
75698;SDS011;64313;51.018;13.742;2024-03-25T08:49:07;5.10;;;1.70;;
75698;SDS011;64313;51.018;13.742;2024-03-25T08:51:33;4.88;;;1.85;;
75698;SDS011;64313;51.018;13.742;2024-03-25T08:53:59;4.18;;;2.00;;
75698;SDS011;64313;51.018;13.742;2024-03-25T08:58:49;4.10;;;1.90;;
75698;SDS011;64313;51.018;13.742;2024-03-25T09:01:15;5.63;;;1.70;;
75698;SDS011;64313;51.018;13.742;2024-03-25T09:06:06;4.03;;;1.42;;
75698;SDS011;64313;51.018;13.742;2024-03-25T09:11:17;4.20;;;1.80;;
75698;SDS011;64313;51.018;13.742;2024-03-25T09:13:43;3.95;;;1.40;;
75698;SDS011;64313;51.018;13.742;2024-03-25T09:18:33;4.72;;;1.60;;
75698;SDS011;64313;51.018;13.742;2024-03-25T09:23:24;3.53;;;1.60;;
75698;SDS011;64313;51.018;13.742;2024-03-25T09:25:53;3.30;;;1.50;;
75698;SDS011;64313;51.018;13.742;2024-03-25T09:28:18;3.35;;;1.50;;
75698;SDS011;64313;51.018;13.742;2024-03-25T09:30:44;3.72;;;1.58;;
75698;SDS011;64313;51.018;13.742;2024-03-25T09:35:35;4.57;;;1.60;;
75698;SDS011;64313;51.018;13.742;2024-03-25T09:38:02;4.35;;;1.40;;
75698;SDS011;64313;51.018;13.742;2024-03-25T09:40:27;3.60;;;1.23;;
75698;SDS011;64313;51.018;13.742;2024-03-25T09:42:57;5.43;;;1.40;;
75698;SDS011;64313;51.018;13.742;2024-03-25T09:45:26;4.63;;;1.50;;
75698;SDS011;64313;51.018;13.742;2024-03-25T09:47:54;3.53;;;1.50;;
75698;SDS011;64313;51.018;13.742;2024-03-25T09:50:20;3.15;;;1.40;;
75698;SDS011;64313;51.018;13.742;2024-03-25T09:52:49;4.00;;;1.40;;
75698;SDS011;64313;51.018;13.742;2024-03-25T09:55:15;4.13;;;1.45;;
75698;SDS011;64313;51.018;13.742;2024-03-25T09:57:44;5.18;;;1.48;;
75698;SDS011;64313;51.018;13.742;2024-03-25T10:00:10;5.53;;;2.15;;
75698;SDS011;64313;51.018;13.742;2024-03-25T10:02:41;5.18;;;1.73;;
75698;SDS011;64313;51.018;13.742;2024-03-25T10:05:07;5.15;;;1.77;;
75698;SDS011;64313;51.018;13.742;2024-03-25T10:07:33;8.13;;;2.13;;
75698;SDS011;64313;51.018;13.742;2024-03-25T10:10:03;5.65;;;1.90;;
75698;SDS011;64313;51.018;13.742;2024-03-25T10:12:31;5.00;;;1.80;;
75698;SDS011;64313;51.018;13.742;2024-03-25T10:14:57;7.93;;;1.80;;
75698;SDS011;64313;51.018;13.742;2024-03-25T10:17:23;4.32;;;1.95;;
75698;SDS011;64313;51.018;13.742;2024-03-25T10:19:48;5.35;;;1.80;;
75698;SDS011;64313;51.018;13.742;2024-03-25T10:24:41;4.97;;;1.70;;
75698;SDS011;64313;51.018;13.742;2024-03-25T10:27:11;4.22;;;1.70;;
75698;SDS011;64313;51.018;13.742;2024-03-25T10:29:53;4.15;;;1.65;;
75698;SDS011;64313;51.018;13.742;2024-03-25T10:32:22;4.30;;;1.60;;
75698;SDS011;64313;51.018;13.742;2024-03-25T10:34:56;4.55;;;1.60;;
75698;SDS011;64313;51.018;13.742;2024-03-25T10:37:23;4.72;;;1.88;;
75698;SDS011;64313;51.018;13.742;2024-03-25T10:39:52;6.88;;;1.50;;
75698;SDS011;64313;51.018;13.742;2024-03-25T10:42:24;4.93;;;1.50;;
75698;SDS011;64313;51.018;13.742;2024-03-25T10:44:50;3.85;;;1.60;;
75698;SDS011;64313;51.018;13.742;2024-03-25T10:47:19;4.32;;;1.60;;
75698;SDS011;64313;51.018;13.742;2024-03-25T10:49:49;4.05;;;1.60;;
75698;SDS011;64313;51.018;13.742;2024-03-25T10:54:44;3.63;;;1.25;;
75698;SDS011;64313;51.018;13.742;2024-03-25T10:57:11;4.20;;;1.60;;
75698;SDS011;64313;51.018;13.742;2024-03-25T10:59:38;3.67;;;1.27;;
75698;SDS011;64313;51.018;13.742;2024-03-25T11:02:06;3.28;;;1.50;;
75698;SDS011;64313;51.018;13.742;2024-03-25T11:04:35;5.53;;;1.48;;
75698;SDS011;64313;51.018;13.742;2024-03-25T11:07:11;3.97;;;1.23;;
75698;SDS011;64313;51.018;13.742;2024-03-25T11:09:37;3.67;;;1.27;;
75698;SDS011;64313;51.018;13.742;2024-03-25T11:12:03;5.05;;;1.50;;
75698;SDS011;64313;51.018;13.742;2024-03-25T11:14:30;3.72;;;1.30;;
75698;SDS011;64313;51.018;13.742;2024-03-25T11:16:59;3.85;;;1.40;;
75698;SDS011;64313;51.018;13.742;2024-03-25T11:19:28;4.45;;;1.80;;
75698;SDS011;64313;51.018;13.742;2024-03-25T11:22:06;4.53;;;1.50;;
75698;SDS011;64313;51.018;13.742;2024-03-25T11:24:32;5.55;;;1.45;;
75698;SDS011;64313;51.018;13.742;2024-03-25T11:27:01;2.90;;;1.35;;
75698;SDS011;64313;51.018;13.742;2024-03-25T11:29:27;3.70;;;1.30;;
75698;SDS011;64313;51.018;13.742;2024-03-25T11:34:18;4.53;;;1.50;;
75698;SDS011;64313;51.018;13.742;2024-03-25T11:36:44;3.28;;;1.20;;
75698;SDS011;64313;51.018;13.742;2024-03-25T11:39:11;5.47;;;1.50;;
75698;SDS011;64313;51.018;13.742;2024-03-25T11:41:40;3.88;;;1.45;;
75698;SDS011;64313;51.018;13.742;2024-03-25T11:44:10;5.18;;;1.85;;
75698;SDS011;64313;51.018;13.742;2024-03-25T11:46:37;4.55;;;1.50;;
75698;SDS011;64313;51.018;13.742;2024-03-25T11:49:07;3.75;;;1.30;;
75698;SDS011;64313;51.018;13.742;2024-03-25T11:51:34;3.80;;;1.30;;
75698;SDS011;64313;51.018;13.742;2024-03-25T11:54:02;3.80;;;1.38;;
75698;SDS011;64313;51.018;13.742;2024-03-25T11:56:29;3.72;;;1.45;;
75698;SDS011;64313;51.018;13.742;2024-03-25T11:58:55;3.47;;;1.30;;
75698;SDS011;64313;51.018;13.742;2024-03-25T12:01:20;3.22;;;1.20;;
75698;SDS011;64313;51.018;13.742;2024-03-25T12:03:46;3.47;;;1.27;;
75698;SDS011;64313;51.018;13.742;2024-03-25T12:06:11;2.83;;;1.10;;
75698;SDS011;64313;51.018;13.742;2024-03-25T12:08:37;4.63;;;1.30;;
75698;SDS011;64313;51.018;13.742;2024-03-25T12:11:10;3.38;;;1.10;;
75698;SDS011;64313;51.018;13.742;2024-03-25T12:13:44;3.45;;;1.27;;
75698;SDS011;64313;51.018;13.742;2024-03-25T12:16:10;2.65;;;1.17;;
75698;SDS011;64313;51.018;13.742;2024-03-25T12:18:36;4.20;;;1.25;;
75698;SDS011;64313;51.018;13.742;2024-03-25T12:23:30;4.25;;;1.08;;
75698;SDS011;64313;51.018;13.742;2024-03-25T12:25:56;4.05;;;1.45;;
75698;SDS011;64313;51.018;13.742;2024-03-25T12:28:23;3.95;;;1.20;;
75698;SDS011;64313;51.018;13.742;2024-03-25T12:30:49;3.13;;;1.17;;
75698;SDS011;64313;51.018;13.742;2024-03-25T12:33:16;4.50;;;1.50;;
75698;SDS011;64313;51.018;13.742;2024-03-25T12:35:44;4.32;;;1.48;;
75698;SDS011;64313;51.018;13.742;2024-03-25T12:38:10;6.82;;;1.30;;
75698;SDS011;64313;51.018;13.742;2024-03-25T12:40:46;3.97;;;1.30;;
75698;SDS011;64313;51.018;13.742;2024-03-25T12:43:15;3.55;;;1.73;;
75698;SDS011;64313;51.018;13.742;2024-03-25T12:45:41;4.55;;;1.30;;
75698;SDS011;64313;51.018;13.742;2024-03-25T12:48:07;3.65;;;1.30;;
75698;SDS011;64313;51.018;13.742;2024-03-25T12:50:34;4.68;;;1.30;;
75698;SDS011;64313;51.018;13.742;2024-03-25T12:53:00;3.80;;;1.17;;
75698;SDS011;64313;51.018;13.742;2024-03-25T12:55:25;3.83;;;1.33;;
75698;SDS011;64313;51.018;13.742;2024-03-25T12:57:50;4.70;;;1.30;;
75698;SDS011;64313;51.018;13.742;2024-03-25T13:00:16;3.90;;;1.40;;
75698;SDS011;64313;51.018;13.742;2024-03-25T13:02:41;5.15;;;1.67;;
75698;SDS011;64313;51.018;13.742;2024-03-25T13:05:07;4.57;;;1.50;;
75698;SDS011;64313;51.018;13.742;2024-03-25T13:07:33;4.88;;;1.40;;
75698;SDS011;64313;51.018;13.742;2024-03-25T13:09:58;3.80;;;1.33;;
75698;SDS011;64313;51.018;13.742;2024-03-25T13:12:23;4.05;;;1.30;;
75698;SDS011;64313;51.018;13.742;2024-03-25T13:14:49;4.07;;;1.23;;
75698;SDS011;64313;51.018;13.742;2024-03-25T13:17:14;3.85;;;1.30;;
75698;SDS011;64313;51.018;13.742;2024-03-25T13:19:39;6.22;;;1.52;;
75698;SDS011;64313;51.018;13.742;2024-03-25T13:22:05;5.00;;;1.45;;
75698;SDS011;64313;51.018;13.742;2024-03-25T13:24:30;3.08;;;1.20;;
75698;SDS011;64313;51.018;13.742;2024-03-25T13:26:57;4.50;;;1.10;;
75698;SDS011;64313;51.018;13.742;2024-03-25T13:29:22;5.60;;;1.20;;
75698;SDS011;64313;51.018;13.742;2024-03-25T13:31:47;2.92;;;1.00;;
75698;SDS011;64313;51.018;13.742;2024-03-25T13:34:13;4.35;;;1.20;;
75698;SDS011;64313;51.018;13.742;2024-03-25T13:36:38;2.67;;;1.10;;
75698;SDS011;64313;51.018;13.742;2024-03-25T13:39:03;3.78;;;1.08;;
75698;SDS011;64313;51.018;13.742;2024-03-25T13:41:29;5.90;;;1.13;;
75698;SDS011;64313;51.018;13.742;2024-03-25T13:43:54;3.13;;;1.27;;
75698;SDS011;64313;51.018;13.742;2024-03-25T13:46:19;3.35;;;1.10;;
75698;SDS011;64313;51.018;13.742;2024-03-25T13:48:46;4.35;;;1.30;;
75698;SDS011;64313;51.018;13.742;2024-03-25T13:51:12;3.63;;;1.20;;
75698;SDS011;64313;51.018;13.742;2024-03-25T13:53:37;2.80;;;1.00;;
75698;SDS011;64313;51.018;13.742;2024-03-25T13:56:03;4.82;;;1.13;;
75698;SDS011;64313;51.018;13.742;2024-03-25T13:58:28;2.53;;;0.95;;
75698;SDS011;64313;51.018;13.742;2024-03-25T14:00:53;5.35;;;1.30;;
75698;SDS011;64313;51.018;13.742;2024-03-25T14:03:20;4.00;;;1.38;;
75698;SDS011;64313;51.018;13.742;2024-03-25T14:05:45;3.70;;;1.20;;
75698;SDS011;64313;51.018;13.742;2024-03-25T14:08:11;5.13;;;1.30;;
75698;SDS011;64313;51.018;13.742;2024-03-25T14:10:36;3.75;;;1.23;;
75698;SDS011;64313;51.018;13.742;2024-03-25T14:13:02;4.22;;;1.20;;
75698;SDS011;64313;51.018;13.742;2024-03-25T14:15:28;3.55;;;1.05;;
75698;SDS011;64313;51.018;13.742;2024-03-25T14:17:53;2.60;;;1.00;;
75698;SDS011;64313;51.018;13.742;2024-03-25T14:20:19;3.42;;;0.98;;
75698;SDS011;64313;51.018;13.742;2024-03-25T14:22:47;3.97;;;1.10;;
75698;SDS011;64313;51.018;13.742;2024-03-25T14:25:13;2.95;;;1.00;;
75698;SDS011;64313;51.018;13.742;2024-03-25T14:27:40;3.20;;;1.00;;
75698;SDS011;64313;51.018;13.742;2024-03-25T14:30:05;4.65;;;1.10;;
75698;SDS011;64313;51.018;13.742;2024-03-25T14:32:32;3.42;;;1.10;;
75698;SDS011;64313;51.018;13.742;2024-03-25T14:34:57;6.18;;;2.20;;
75698;SDS011;64313;51.018;13.742;2024-03-25T14:37:23;4.35;;;1.50;;
75698;SDS011;64313;51.018;13.742;2024-03-25T14:39:49;5.53;;;1.23;;
75698;SDS011;64313;51.018;13.742;2024-03-25T14:42:14;4.88;;;1.20;;
75698;SDS011;64313;51.018;13.742;2024-03-25T14:44:39;3.30;;;1.02;;
75698;SDS011;64313;51.018;13.742;2024-03-25T14:47:05;5.28;;;1.35;;
75698;SDS011;64313;51.018;13.742;2024-03-25T14:49:31;4.10;;;1.10;;
75698;SDS011;64313;51.018;13.742;2024-03-25T14:51:57;5.15;;;1.20;;
75698;SDS011;64313;51.018;13.742;2024-03-25T14:54:22;4.75;;;1.20;;
75698;SDS011;64313;51.018;13.742;2024-03-25T14:56:48;5.45;;;1.08;;
75698;SDS011;64313;51.018;13.742;2024-03-25T14:59:14;3.25;;;1.00;;
75698;SDS011;64313;51.018;13.742;2024-03-25T15:01:39;3.83;;;1.05;;
75698;SDS011;64313;51.018;13.742;2024-03-25T15:04:05;4.03;;;1.15;;
75698;SDS011;64313;51.018;13.742;2024-03-25T15:06:31;4.32;;;1.25;;
75698;SDS011;64313;51.018;13.742;2024-03-25T15:08:57;3.63;;;1.10;;
75698;SDS011;64313;51.018;13.742;2024-03-25T15:11:23;4.93;;;1.30;;
75698;SDS011;64313;51.018;13.742;2024-03-25T15:13:50;3.55;;;1.10;;
75698;SDS011;64313;51.018;13.742;2024-03-25T15:16:16;4.03;;;1.20;;
75698;SDS011;64313;51.018;13.742;2024-03-25T15:18:41;3.95;;;0.90;;
75698;SDS011;64313;51.018;13.742;2024-03-25T15:21:06;2.90;;;1.08;;
75698;SDS011;64313;51.018;13.742;2024-03-25T15:23:32;5.07;;;1.10;;
75698;SDS011;64313;51.018;13.742;2024-03-25T15:25:57;4.55;;;1.00;;
75698;SDS011;64313;51.018;13.742;2024-03-25T15:28:23;5.85;;;1.00;;
75698;SDS011;64313;51.018;13.742;2024-03-25T15:30:49;3.88;;;1.00;;
75698;SDS011;64313;51.018;13.742;2024-03-25T15:33:16;3.70;;;0.90;;
75698;SDS011;64313;51.018;13.742;2024-03-25T15:35:41;4.78;;;1.30;;
75698;SDS011;64313;51.018;13.742;2024-03-25T15:38:07;4.03;;;1.35;;
75698;SDS011;64313;51.018;13.742;2024-03-25T15:40:32;5.22;;;1.73;;
75698;SDS011;64313;51.018;13.742;2024-03-25T15:43:00;4.53;;;1.48;;
75698;SDS011;64313;51.018;13.742;2024-03-25T15:45:26;3.40;;;1.20;;
75698;SDS011;64313;51.018;13.742;2024-03-25T15:47:52;3.88;;;1.25;;
75698;SDS011;64313;51.018;13.742;2024-03-25T15:50:17;2.95;;;1.00;;
75698;SDS011;64313;51.018;13.742;2024-03-25T15:52:42;3.65;;;1.30;;
75698;SDS011;64313;51.018;13.742;2024-03-25T15:55:08;4.43;;;1.20;;
75698;SDS011;64313;51.018;13.742;2024-03-25T15:57:33;4.63;;;1.30;;
75698;SDS011;64313;51.018;13.742;2024-03-25T15:59:58;5.53;;;1.20;;
75698;SDS011;64313;51.018;13.742;2024-03-25T16:02:24;5.63;;;1.23;;
75698;SDS011;64313;51.018;13.742;2024-03-25T16:04:50;5.05;;;1.30;;
75698;SDS011;64313;51.018;13.742;2024-03-25T16:07:16;4.25;;;1.20;;
75698;SDS011;64313;51.018;13.742;2024-03-25T16:09:42;3.15;;;1.13;;
75698;SDS011;64313;51.018;13.742;2024-03-25T16:12:07;4.15;;;1.10;;
75698;SDS011;64313;51.018;13.742;2024-03-25T16:14:33;6.38;;;1.60;;
75698;SDS011;64313;51.018;13.742;2024-03-25T16:16:58;3.90;;;1.10;;
75698;SDS011;64313;51.018;13.742;2024-03-25T16:19:24;4.32;;;1.23;;
75698;SDS011;64313;51.018;13.742;2024-03-25T16:21:49;3.67;;;1.17;;
75698;SDS011;64313;51.018;13.742;2024-03-25T16:24:15;5.88;;;1.40;;
75698;SDS011;64313;51.018;13.742;2024-03-25T16:26:40;3.38;;;0.90;;
75698;SDS011;64313;51.018;13.742;2024-03-25T16:29:06;4.57;;;1.30;;
75698;SDS011;64313;51.018;13.742;2024-03-25T16:31:31;3.38;;;1.05;;
75698;SDS011;64313;51.018;13.742;2024-03-25T16:33:57;4.22;;;1.13;;
75698;SDS011;64313;51.018;13.742;2024-03-25T16:36:22;4.15;;;1.10;;
75698;SDS011;64313;51.018;13.742;2024-03-25T16:38:48;4.45;;;1.20;;
75698;SDS011;64313;51.018;13.742;2024-03-25T16:41:14;3.60;;;1.13;;
75698;SDS011;64313;51.018;13.742;2024-03-25T16:43:39;2.83;;;1.05;;
75698;SDS011;64313;51.018;13.742;2024-03-25T16:46:05;3.97;;;1.20;;
75698;SDS011;64313;51.018;13.742;2024-03-25T16:48:30;5.00;;;1.17;;
75698;SDS011;64313;51.018;13.742;2024-03-25T16:50:56;5.65;;;1.20;;
75698;SDS011;64313;51.018;13.742;2024-03-25T16:53:21;4.10;;;1.73;;
75698;SDS011;64313;51.018;13.742;2024-03-25T16:55:48;4.20;;;1.02;;
75698;SDS011;64313;51.018;13.742;2024-03-25T16:58:14;2.42;;;0.90;;
75698;SDS011;64313;51.018;13.742;2024-03-25T17:00:39;3.03;;;1.20;;
75698;SDS011;64313;51.018;13.742;2024-03-25T17:03:05;5.38;;;1.30;;
75698;SDS011;64313;51.018;13.742;2024-03-25T17:05:31;4.45;;;1.50;;
75698;SDS011;64313;51.018;13.742;2024-03-25T17:07:57;4.40;;;1.45;;
75698;SDS011;64313;51.018;13.742;2024-03-25T17:10:22;4.15;;;1.45;;
75698;SDS011;64313;51.018;13.742;2024-03-25T17:12:47;4.43;;;1.33;;
75698;SDS011;64313;51.018;13.742;2024-03-25T17:15:13;4.30;;;1.33;;
75698;SDS011;64313;51.018;13.742;2024-03-25T17:17:38;4.68;;;1.30;;
75698;SDS011;64313;51.018;13.742;2024-03-25T17:20:04;4.28;;;1.30;;
75698;SDS011;64313;51.018;13.742;2024-03-25T17:22:35;4.43;;;1.42;;
75698;SDS011;64313;51.018;13.742;2024-03-25T17:25:04;5.60;;;1.50;;
75698;SDS011;64313;51.018;13.742;2024-03-25T17:27:30;5.47;;;1.30;;
75698;SDS011;64313;51.018;13.742;2024-03-25T17:29:55;4.20;;;1.50;;
75698;SDS011;64313;51.018;13.742;2024-03-25T17:32:20;5.90;;;1.40;;
75698;SDS011;64313;51.018;13.742;2024-03-25T17:34:46;4.70;;;1.40;;
75698;SDS011;64313;51.018;13.742;2024-03-25T17:37:12;5.97;;;1.20;;
75698;SDS011;64313;51.018;13.742;2024-03-25T17:39:38;5.28;;;1.40;;
75698;SDS011;64313;51.018;13.742;2024-03-25T17:42:03;7.53;;;1.33;;
75698;SDS011;64313;51.018;13.742;2024-03-25T17:44:28;5.20;;;1.40;;
75698;SDS011;64313;51.018;13.742;2024-03-25T17:46:55;3.75;;;1.20;;
75698;SDS011;64313;51.018;13.742;2024-03-25T17:49:22;5.05;;;1.38;;
75698;SDS011;64313;51.018;13.742;2024-03-25T17:51:48;3.58;;;1.20;;
75698;SDS011;64313;51.018;13.742;2024-03-25T17:54:14;6.78;;;1.67;;
75698;SDS011;64313;51.018;13.742;2024-03-25T17:56:39;4.47;;;1.50;;
75698;SDS011;64313;51.018;13.742;2024-03-25T17:59:04;5.15;;;1.42;;
75698;SDS011;64313;51.018;13.742;2024-03-25T18:01:30;5.65;;;1.80;;